East Point, Kentucky
Current Conditions -  °F | °C
As of 9:55 PM on Tuesday 21 Oct 2014 (Local Time) from KSJS Reporting Station
Overcast Overcast  
Wind Chill: 49°   Ceiling: 4600
Heat Index: 49°   Visibility: 10mi
Dew Point: 42°   Wind: 3mph
Humidity: 75%   Direction: 320°NW
Pressure: 30.1"   Gusts: NA
Location:  37.75°N, 82.79°W
Report Text: KSJS 220155Z AUTO 32003KT 10SM SCT031 BKN046 OVC055 10/05 A3010 RMK AO2 T00950053
Loading
Personal Weather Stations






























Interactive Weather Map
Tropical Storm Tracking
New forecast layout! Learn more

10-Day Weather Forecast

Advertisements
Track Severe Weather on mobile